EW2244 Weather Reports


Display with metric or nautical units.
time (UTC)temp
F
wind
direction
speed
MPH
gust
MPH
rain 1hr
in
rain 24hr
in
rain mn
in
humidity
%
barometer
mb
20190820012135 68 269 0.0 3.0 0.04 1.77 0.33 95 1017.9
20190820011126 68 247 2.0 7.0 0.04 1.77 0.33 95 1018.0
20190820010135 67 34 1.0 6.0 0.04 1.77 0.33 95 1017.9
20190820005121 67 265 1.0 9.0 0.04 1.77 0.33 95 1018.0
20190820004128 68 306 1.0 8.0 0.04 1.77 0.33 95 1018.1
20190820003139 68 26 3.0 6.0 0.00 1.73 0.32 95 1018.1
20190820002122 68 54 2.0 8.0 0.00 1.73 0.32 95 1018.3
20190820001129 68 273 0.0 3.0 0.00 1.73 0.32 95 1018.3
20190820000138 68 66 2.0 5.0 0.00 1.73 0.32 95 1018.5
20190819235129 68 26 0.0 5.0 0.00 1.73 0.32 95 1018.6
20190819234136 68 269 2.0 8.0 0.00 1.73 0.32 94 1018.8
20190819233125 68 279 0.0 3.0 0.04 1.73 0.32 94 1018.8
20190819232130 68 281 2.0 4.0 0.16 1.73 0.32 94 1018.9
20190819231121 68 197 0.0 1.0 0.16 1.73 0.32 94 1018.9
20190819230128 68 197 0.0 1.0 0.55 1.73 0.32 94 1019.0
20190819225135 68 197 0.0 1.0 1.46 1.73 0.32 94 1019.0
20190819224140 68 197 0.0 1.0 1.57 1.73 0.32 94 1018.9
20190819223131 68 197 0.0 2.0 1.54 1.69 0.31 93 1019.2
20190819222139 68 197 0.0 1.0 1.42 1.57 0.28 92 1019.2
20190819221126 69 197 0.0 1.0 1.42 1.57 0.28 92 1019.2
20190819220132 69 197 0.0 2.0 0.98 1.14 0.17 91 1019.1
20190819215121 69 181 1.0 4.0 0.08 0.24 0.06 90 1019.0
20190819214127 69 300 1.0 7.0 0.00 0.16 0.04 90 1018.7
20190819213132 69 326 2.0 10.0 0.00 0.16 0.04 90 1018.5
20190819212122 70 273 3.0 7.0 0.00 0.16 0.04 90 1018.4
20190819211128 70 46 1.0 4.0 0.00 0.16 0.04 89 1018.3
20190819210133 70 348 1.0 3.0 0.00 0.16 0.04 89 1018.5
20190819205141 69 265 3.0 7.0 0.00 0.16 0.04 90 1018.7
20190819204126 70 321 0.0 3.0 0.00 0.16 0.04 90 1018.6
20190819203132 70 322 0.0 1.0 0.00 0.16 0.04 90 1018.6
20190819202136 70 294 0.0 4.0 0.00 0.16 0.04 90 1018.3
20190819201158 70 292 2.0 5.0 0.00 0.16 0.04 90 1018.5
20190819200123 70 290 3.0 7.0 0.00 0.16 0.04 90 1018.5
20190819195133 70 269 0.0 3.0 0.00 0.16 0.04 90 1018.5
20190819194139 70 309 0.0 5.0 0.00 0.16 0.04 90 1018.3
20190819193126 70 278 1.0 9.0 0.00 0.16 0.04 90 1018.4
20190819192132 70 273 2.0 5.0 0.00 0.16 0.04 90 1018.3
20190819191123 70 227 1.0 6.0 0.00 0.16 0.04 89 1018.2
20190819190128 71 279 2.0 9.0 0.00 0.16 0.04 89 1018.2
20190819185135 71 19 0.0 7.0 0.00 0.16 0.04 89 1017.9
20190819184124 71 281 1.0 8.0 0.00 0.16 0.04 89 1018.5
20190819183129 71 34 1.0 5.0 0.00 0.16 0.04 88 1018.2
20190819182135 71 266 1.0 7.0 0.04 0.16 0.04 88 1018.1
20190819181140 71 315 0.0 2.0 0.08 0.16 0.04 87 1018.1
20190819180131 72 22 0.0 4.0 0.08 0.16 0.04 87 1017.9
20190819175137 72 351 0.0 4.0 0.08 0.16 0.04 86 1018.0
20190819174124 73 269 0.0 4.0 0.08 0.16 0.04 86 1018.0
20190819173130 73 267 3.0 8.0 0.04 0.12 0.03 83 1018.1
20190819172137 74 273 2.0 6.0 0.04 0.12 0.03 82 1018.1
20190819171124 75 345 0.0 1.0 0.00 0.08 0.02 79 1017.8
20190819170129 75 345 0.0 2.0 0.00 0.08 0.02 77 1018.0
20190819165136 75 298 0.0 2.0 0.00 0.08 0.02 76 1017.8
20190819164125 76 303 0.0 3.0 0.00 0.08 0.02 76 1017.7
20190819163133 76 272 1.0 2.0 0.00 0.08 0.02 76 1017.6
20190819162138 76 259 1.0 4.0 0.00 0.08 0.02 75 1017.5
20190819161123 77 13 0.0 4.0 0.00 0.08 0.02 75 1017.5
20190819160135 77 38 1.0 6.0 0.00 0.08 0.02 75 1017.6
20190819155121 77 30 1.0 5.0 0.00 0.08 0.02 77 1017.5
20190819154128 77 62 2.0 5.0 0.00 0.08 0.02 75 1017.5
20190819153134 77 13 2.0 6.0 0.00 0.08 0.02 75 1017.4
20190819152125 77 11 2.0 3.0 0.00 0.08 0.02 73 1017.5
20190819151130 77 13 1.0 4.0 0.00 0.08 0.02 73 1017.6
20190819150138 78 9 1.0 4.0 0.00 0.08 0.02 72 1017.9
20190819145122 78 19 1.0 4.0 0.00 0.08 0.02 72 1017.7
20190819144134 77 13 1.0 5.0 0.00 0.08 0.02 73 1017.7
20190819143140 77 5 1.0 8.0 0.00 0.08 0.02 74 1017.7
20190819142127 77 19 1.0 8.0 0.00 0.08 0.02 75 1017.8
20190819141131 77 37 3.0 6.0 0.00 0.08 0.02 75 1017.9
20190819140122 77 22 2.0 5.0 0.00 0.08 0.02 75 1017.9
20190819135127 78 9 1.0 4.0 0.00 0.08 0.02 74 1018.0
20190819134134 77 47 2.0 5.0 0.00 0.08 0.02 74 1018.1
20190819133126 77 45 1.0 3.0 0.00 0.08 0.02 76 1018.1
20190819132133 78 80 0.0 0.0 0.00 0.08 0.02 71 1018.3
20190819131139 78 80 0.0 0.0 0.00 0.08 0.02 69 1018.4
20190819130124 78 80 0.0 3.0 0.00 0.08 0.02 70 1018.2
20190819125135 78 80 0.0 2.0 0.00 0.08 0.02 72 1018.0
20190819124121 79 80 0.0 6.0 0.00 0.08 0.02 72 1018.1
20190819123128 78 125 0.0 2.0 0.00 0.08 0.02 73 1018.0
20190819122126 78 130 1.0 3.0 0.00 0.08 0.02 75 1017.9
20190819121124 77 309 0.0 5.0 0.00 0.08 0.02 75 1018.1
20190819120128 78 138 0.0 4.0 0.00 0.08 0.02 73 1018.1
20190819115137 77 15 0.0 4.0 0.00 0.08 0.02 71 1018.2
20190819114122 77 129 1.0 3.0 0.00 0.08 0.02 72 1018.4
20190819113133 78 126 1.0 4.0 0.00 0.08 0.02 73 1018.1
20190819112138 78 152 1.0 6.0 0.00 0.08 0.02 74 1018.4
20190819111122 76 71 0.0 2.0 0.00 0.08 0.02 75 1018.4
20190819110129 77 71 0.0 3.0 0.00 0.08 0.02 79 1018.1
20190819105140 78 94 2.0 6.0 0.00 0.08 0.02 78 1018.2
20190819104125 76 5 2.0 6.0 0.00 0.08 0.02 78 1018.3
20190819103132 76 115 0.0 5.0 0.00 0.08 0.02 76 1018.4
20190819102137 76 115 1.0 6.0 0.00 0.08 0.02 80 1018.2
20190819101140 74 21 3.0 6.0 0.00 0.08 0.02 81 1018.2
20190819100125 74 39 2.0 3.0 0.00 0.08 0.02 81 1018.2
20190819095133 76 13 2.0 6.0 0.00 0.08 0.02 82 1018.3
20190819094139 76 22 0.0 6.0 0.00 0.08 0.02 83 1018.1
20190819093130 76 56 1.0 4.0 0.00 0.08 0.02 82 1018.0
20190819092136 75 57 0.0 4.0 0.00 0.08 0.02 83 1018.1
20190819091123 74 350 1.0 5.0 0.00 0.08 0.02 85 1018.0
20190819090129 73 342 1.0 4.0 0.00 0.08 0.02 88 1018.1
20190819085140 72 12 2.0 4.0 0.00 0.08 0.02 89 1018.0
20190819084126 70 19 1.0 6.0 0.00 0.08 0.02 91 1017.7
20190819083135 70 25 1.0 4.0 0.00 0.08 0.02 92 1017.6
20190819082141 70 321 0.0 4.0 0.00 0.08 0.02 93 1017.8
20190819081131 70 279 1.0 8.0 0.00 0.08 0.02 92 1017.5
20190819080138 71 35 1.0 3.0 0.00 0.08 0.02 91 1017.3
20190819075126 71 302 0.0 1.0 0.00 0.08 0.02 91 1017.8
20190819074132 71 302 0.0 0.0 0.00 0.08 0.02 90 1018.0
20190819073124 72 302 0.0 0.0 0.00 0.08 0.02 89 1017.9
20190819072127 72 302 0.0 0.0 0.00 0.08 0.02 88 1017.8
20190819071132 72 302 0.0 0.0 0.00 0.08 0.02 87 1017.6
20190819070138 72 287 0.0 0.0 0.00 0.08 0.02 86 1017.4
20190819065129 72 287 0.0 0.0 0.00 0.08 0.02 87 1017.4
20190819064136 72 287 0.0 0.0 0.00 0.08 0.02 87 1017.1
20190819063123 71 287 0.0 2.0 0.00 0.08 0.02 90 1017.1
20190819062131 69 342 0.0 1.0 0.00 0.08 0.02 92 1016.9
20190819061139 68 342 0.0 0.0 0.00 0.08 0.02 92 1016.8
20190819060129 68 342 0.0 0.0 0.04 0.08 0.02 92 1016.7
20190819055135 68 342 0.0 3.0 0.08 0.08 0.02 92 1016.9
20190819054121 68 41 0.0 5.0 0.08 0.08 0.02 91 1016.7
20190819053132 69 273 1.0 6.0 0.08 0.08 0.02 91 1016.5
20190819052138 69 245 0.0 1.0 0.08 0.08 0.02 91 1016.3
20190819051124 69 245 0.0 1.0 0.08 0.08 0.02 91 1016.2
20190819050132 69 245 0.0 0.0 0.04 0.04 0.01 90 1016.2
20190819045121 69 245 0.0 3.0 0.00 0.00 0.00 89 1016.3
20190819044129 69 244 0.0 1.0 0.00 0.00 0.00 89 1016.4
20190819043139 69 244 0.0 0.0 0.00 0.00 0.00 89 1016.2
20190819042126 69 244 0.0 0.0 0.00 0.00 0.00 89 1016.3
20190819041132 69 244 0.0 0.0 0.00 0.00 0.00 89 1016.2
20190819040140 69 244 0.0 2.0 0.00 0.00 0.00 88 1016.1
20190819035127 69 244 0.0 1.0 0.00 0.00 0.00 87 1015.8
20190819034137 69 244 0.0 1.0 0.00 0.00 0.00 86 1015.8
20190819033125 69 244 0.0 0.0 0.00 0.00 0.00 85 1015.8
20190819032132 69 244 0.0 1.0 0.00 0.00 0.00 85 1015.9
20190819031140 69 244 0.0 0.0 0.00 0.00 0.00 85 1015.9
20190819030130 69 244 0.0 0.0 0.00 0.00 0.00 84 1015.8
20190819025139 69 244 0.0 1.0 0.00 0.00 0.00 84 1015.8
20190819024125 69 244 0.0 0.0 0.00 0.00 0.00 84 1015.8
20190819023132 69 244 0.0 0.0 0.00 0.00 0.00 84 1016.1
20190819022125 69 244 0.0 0.0 0.00 0.00 0.00 84 1016.2
20190819021132 69 244 0.0 0.0 0.00 0.00 0.00 84 1016.1
20190819020139 69 244 0.0 0.0 0.00 0.00 0.00 84 1016.0
20190819015125 69 244 0.0 0.0 0.00 0.00 0.00 83 1016.1
20190819014138 69 244 0.0 0.0 0.00 0.00 0.00 83 1016.2
20190819013124 70 244 0.0 1.0 0.00 0.00 0.00 83 1016.3